createdAt,value
2023-01-12T04:44:04.381Z,7.84
2023-01-12T04:48:20.427Z,7.98
2023-01-12T04:52:28.620Z,7.93
2023-01-12T04:56:38.086Z,7.98
2023-01-12T05:00:52.576Z,7.97
2023-01-12T05:05:00.580Z,7.95
2023-01-12T05:09:34.428Z,7.99
2023-01-12T05:13:35.883Z,7.92
2023-01-12T05:17:50.548Z,7.96
2023-01-12T05:21:58.378Z,7.89
2023-01-12T05:26:04.633Z,7.96
2023-01-12T05:30:13.582Z,7.92
2023-01-12T05:34:21.652Z,7.88
2023-01-12T05:38:36.433Z,7.82
2023-01-12T05:43:03.650Z,7.93
2023-01-12T05:47:11.641Z,7.88
2023-01-12T05:51:20.604Z,7.80
2023-01-12T05:55:28.385Z,7.83
2023-01-12T05:59:29.785Z,7.84
2023-01-12T06:03:44.415Z,7.82
2023-01-12T06:07:59.613Z,7.81
2023-01-12T06:12:26.427Z,7.91
2023-01-12T06:16:28.941Z,7.90
2023-01-12T06:20:36.464Z,7.72
2023-01-12T06:24:37.814Z,7.81
2023-01-12T06:28:47.584Z,7.98
2023-01-12T06:32:55.500Z,7.80
2023-01-12T06:36:57.072Z,8.01
2023-01-12T06:41:09.850Z,7.97
2023-01-12T06:45:12.324Z,8.07
2023-01-12T06:49:20.366Z,7.97
2023-01-12T06:53:28.603Z,7.84
2023-01-12T06:57:30.148Z,8.00
2023-01-12T07:01:38.554Z,8.12
2023-01-12T07:06:20.452Z,8.16
2023-01-12T07:10:28.919Z,8.12
2023-01-12T07:14:36.405Z,8.16
2023-01-12T07:18:44.606Z,8.13
2023-01-12T07:22:45.949Z,8.19
2023-01-12T07:26:57.385Z,8.31
2023-01-12T07:31:07.481Z,8.31
2023-01-12T07:35:15.499Z,8.16
2023-01-12T07:39:37.419Z,8.40
2023-01-12T07:43:45.412Z,8.34
2023-01-12T07:47:59.463Z,8.45
2023-01-12T07:52:00.985Z,8.35
2023-01-12T07:56:09.440Z,8.46
2023-01-12T08:00:18.426Z,8.45
2023-01-12T08:04:20.897Z,8.26
2023-01-12T08:08:35.503Z,8.56
2023-01-12T08:12:43.607Z,8.47
2023-01-12T08:16:49.756Z,8.33
2023-01-12T08:20:59.513Z,8.48
2023-01-12T08:25:20.432Z,8.62
2023-01-12T08:29:31.915Z,8.55
2023-01-12T08:33:39.517Z,8.67
2023-01-12T08:37:47.630Z,8.60
2023-01-12T08:41:55.599Z,8.72
2023-01-12T08:46:14.691Z,8.60
2023-01-12T08:50:22.456Z,8.72
2023-01-12T08:54:30.446Z,8.70
2023-01-12T08:58:38.419Z,8.70
2023-01-12T09:02:46.532Z,8.79
2023-01-12T09:07:08.576Z,8.79
2023-01-12T09:11:18.497Z,8.86
